Time;durP1;ratioP1;P1;durP2;ratioP2;P2;SDS_P1;SDS_P2;PMS_P1;PMS_P2;Temp;Humidity;BMP_temperature;BMP_pressure;BME280_temperature;BME280_humidity;BME280_pressure;Samples;Min_cycle;Max_cycle;Signal;HPM_P1;HPM_P2
2021/10/23 00:00:29;;;;;;;11.82;2.10;;;6.60;99.90;;;;;;2072497;28;20037;-73
2021/10/23 00:01:31;;;;;;;10.60;1.88;;;6.60;99.90;;;;;;2072128;28;20034;-72
2021/10/23 00:02:31;;;;;;;8.75;2.20;;;6.60;99.90;;;;;;2072374;28;20029;-72
2021/10/23 00:03:32;;;;;;;8.35;1.90;;;6.60;99.90;;;;;;2072545;28;20017;-73
2021/10/23 00:04:32;;;;;;;8.75;1.90;;;6.70;99.90;;;;;;2072945;28;20034;-73
2021/10/23 00:05:33;;;;;;;8.50;1.80;;;6.70;99.90;;;;;;2072384;28;20030;-72
2021/10/23 00:06:34;;;;;;;5.72;1.75;;;6.70;99.90;;;;;;2072373;28;20771;-72
2021/10/23 00:07:34;;;;;;;9.80;2.30;;;6.70;99.90;;;;;;2073113;28;20030;-72
2021/10/23 00:08:35;;;;;;;7.78;2.25;;;6.70;99.90;;;;;;2072941;28;20470;-72
2021/10/23 00:09:36;;;;;;;9.52;1.98;;;6.70;99.90;;;;;;2072556;28;20033;-73
2021/10/23 00:10:37;;;;;;;6.68;1.90;;;6.70;99.90;;;;;;2072725;28;20038;-72
2021/10/23 00:11:37;;;;;;;7.55;2.00;;;6.70;99.90;;;;;;2073118;28;20025;-73
2021/10/23 00:12:38;;;;;;;6.57;1.88;;;6.70;99.90;;;;;;2073248;28;20022;-72
2021/10/23 00:13:38;;;;;;;9.57;2.20;;;6.70;99.90;;;;;;2072626;28;20026;-73
2021/10/23 00:14:39;;;;;;;8.27;1.90;;;6.60;99.90;;;;;;2073101;28;20397;-72
2021/10/23 00:15:40;;;;;;;8.82;1.88;;;6.60;99.90;;;;;;2073112;28;20037;-73
2021/10/23 00:16:41;;;;;;;5.63;1.90;;;6.60;99.90;;;;;;2072821;28;20041;-73
2021/10/23 00:17:42;;;;;;;6.30;1.90;;;6.60;99.90;;;;;;2072870;28;20040;-72
2021/10/23 00:18:42;;;;;;;7.35;2.20;;;6.60;99.90;;;;;;2072596;28;20517;-72
2021/10/23 00:19:43;;;;;;;8.05;2.00;;;6.60;99.90;;;;;;2072773;28;20532;-72
2021/10/23 00:20:43;;;;;;;6.43;1.85;;;6.60;99.90;;;;;;2072736;28;20510;-72
2021/10/23 00:21:44;;;;;;;6.57;2.15;;;6.60;99.90;;;;;;2072519;28;20449;-72
2021/10/23 00:22:45;;;;;;;7.43;1.92;;;6.60;99.90;;;;;;2072129;28;20517;-73
2021/10/23 00:23:45;;;;;;;6.03;1.70;;;6.60;99.90;;;;;;2071505;28;20090;-72
2021/10/23 00:24:46;;;;;;;4.35;1.90;;;6.60;99.90;;;;;;2072807;28;20057;-73
2021/10/23 00:25:46;;;;;;;11.68;2.10;;;6.60;99.90;;;;;;2072170;28;20397;-72
2021/10/23 00:26:47;;;;;;;4.97;1.90;;;6.60;99.90;;;;;;2072109;28;20033;-73
2021/10/23 00:27:48;;;;;;;7.00;1.80;;;6.60;99.90;;;;;;2072090;28;20018;-73
2021/10/23 00:28:48;;;;;;;7.90;1.90;;;6.60;99.90;;;;;;2072230;28;20082;-72
2021/10/23 00:29:49;;;;;;;8.45;2.10;;;6.60;99.90;;;;;;2072319;28;20087;-72
2021/10/23 00:30:49;;;;;;;9.20;2.20;;;6.60;99.90;;;;;;2072636;28;20133;-72
2021/10/23 00:31:50;;;;;;;5.25;2.10;;;6.60;99.90;;;;;;2072637;28;20029;-72
2021/10/23 00:32:51;;;;;;;6.47;2.00;;;6.60;99.90;;;;;;2072771;28;20441;-72
2021/10/23 00:33:52;;;;;;;7.35;1.90;;;6.60;99.90;;;;;;2072295;28;20014;-72
2021/10/23 00:34:53;;;;;;;8.02;2.10;;;6.60;99.90;;;;;;2072149;28;20054;-73
2021/10/23 00:35:53;;;;;;;7.82;2.00;;;6.60;99.90;;;;;;2072297;28;20034;-73
2021/10/23 00:36:54;;;;;;;5.90;1.75;;;6.60;99.90;;;;;;2073038;28;20060;-73
2021/10/23 00:37:54;;;;;;;7.13;2.05;;;6.60;99.90;;;;;;2074276;28;20030;-73
2021/10/23 00:38:55;;;;;;;6.97;2.00;;;6.60;99.90;;;;;;2074459;28;20708;-73
2021/10/23 00:39:55;;;;;;;6.03;1.77;;;6.60;99.90;;;;;;2074205;28;20034;-73
2021/10/23 00:40:56;;;;;;;5.47;1.90;;;6.60;99.90;;;;;;2072897;28;20034;-74
2021/10/23 00:41:57;;;;;;;7.03;2.20;;;6.60;99.90;;;;;;2072301;28;20160;-73
2021/10/23 00:42:59;;;;;;;6.90;1.77;;;6.60;99.90;;;;;;2071725;28;20511;-73
2021/10/23 00:43:59;;;;;;;4.78;1.77;;;6.60;99.90;;;;;;2071929;28;20041;-73
2021/10/23 00:45:00;;;;;;;6.15;2.22;;;6.50;99.90;;;;;;2072468;28;20069;-72
2021/10/23 00:46:01;;;;;;;7.68;2.20;;;6.50;99.90;;;;;;2072584;28;20018;-72
2021/10/23 00:47:16;;;;;;;6.97;2.10;;;6.50;99.90;;;;;;2072612;28;20488;-74
2021/10/23 00:48:17;;;;;;;6.03;2.15;;;6.50;99.90;;;;;;2072570;28;20030;-72
2021/10/23 00:49:18;;;;;;;7.68;2.58;;;6.50;99.90;;;;;;2072648;28;20022;-73
2021/10/23 00:50:19;;;;;;;4.68;2.10;;;6.50;99.90;;;;;;2072483;28;20100;-73
2021/10/23 00:51:20;;;;;;;7.00;2.05;;;6.50;99.90;;;;;;2072357;28;20033;-72
2021/10/23 00:52:23;;;;;;;6.85;2.00;;;6.50;99.90;;;;;;2072653;28;20062;-73
2021/10/23 00:53:23;;;;;;;6.65;2.28;;;6.50;99.90;;;;;;2071225;28;20176;-73
2021/10/23 00:54:26;;;;;;;8.00;2.50;;;6.50;99.90;;;;;;2071778;28;20057;-73
2021/10/23 00:55:27;;;;;;;7.93;2.65;;;6.50;99.90;;;;;;2072786;28;20136;-72
2021/10/23 00:56:27;;;;;;;6.88;2.33;;;6.50;99.90;;;;;;2072669;28;20029;-72
2021/10/23 00:57:28;;;;;;;6.65;2.20;;;6.50;99.90;;;;;;2072674;28;20322;-73
2021/10/23 00:58:29;;;;;;;6.13;2.33;;;6.50;99.90;;;;;;2071928;28;20038;-73
2021/10/23 00:59:31;;;;;;;6.95;2.30;;;6.60;99.90;;;;;;2071905;28;20577;-73
2021/10/23 01:00:31;;;;;;;6.13;2.60;;;6.50;99.90;;;;;;2072646;28;20492;-74
2021/10/23 01:01:32;;;;;;;8.07;2.70;;;6.50;99.90;;;;;;2071753;28;20042;-73
2021/10/23 01:02:32;;;;;;;5.43;2.22;;;6.50;99.90;;;;;;2071950;28;20045;-74
2021/10/23 01:03:33;;;;;;;8.63;2.53;;;6.50;99.90;;;;;;2071927;28;20068;-73
2021/10/23 01:04:35;;;;;;;6.88;2.30;;;6.50;99.90;;;;;;2072405;28;20032;-73
2021/10/23 01:05:35;;;;;;;8.82;2.40;;;6.50;99.90;;;;;;2072490;28;20022;-73
2021/10/23 01:06:36;;;;;;;7.55;2.15;;;6.50;99.90;;;;;;2072792;28;20041;-74
2021/10/23 01:07:37;;;;;;;7.40;2.35;;;6.50;99.90;;;;;;2072585;28;20107;-74
2021/10/23 01:08:38;;;;;;;13.00;2.45;;;6.50;99.90;;;;;;2072619;28;20048;-74
2021/10/23 01:09:39;;;;;;;6.57;2.47;;;6.60;99.90;;;;;;2072469;28;20030;-73
2021/10/23 01:10:41;;;;;;;8.73;2.30;;;6.50;99.90;;;;;;2072263;28;20053;-73
2021/10/23 01:11:42;;;;;;;9.52;2.70;;;6.50;99.90;;;;;;2072410;28;20052;-73
2021/10/23 01:12:45;;;;;;;6.18;2.25;;;6.50;99.90;;;;;;2072506;28;20025;-73
2021/10/23 01:13:46;;;;;;;6.07;2.35;;;6.50;99.90;;;;;;2071841;28;20162;-73
2021/10/23 01:14:46;;;;;;;7.25;2.60;;;6.50;99.90;;;;;;2072582;28;20150;-73
2021/10/23 01:15:47;;;;;;;6.43;2.40;;;6.50;99.90;;;;;;2072738;28;20080;-72
2021/10/23 01:16:50;;;;;;;4.65;2.35;;;6.50;99.90;;;;;;2072363;28;20037;-72
2021/10/23 01:17:52;;;;;;;7.90;2.60;;;6.50;99.90;;;;;;2072356;28;20022;-73
2021/10/23 01:18:53;;;;;;;7.32;2.40;;;6.60;99.90;;;;;;2072237;28;20547;-73
2021/10/23 01:19:54;;;;;;;9.55;2.70;;;6.60;99.90;;;;;;2071642;28;20026;-73
2021/10/23 01:20:54;;;;;;;8.93;2.30;;;6.60;99.90;;;;;;2071768;28;20105;-72
2021/10/23 01:21:55;;;;;;;8.85;2.20;;;6.60;99.90;;;;;;2072334;28;20848;-72
2021/10/23 01:22:56;;;;;;;7.95;2.42;;;6.60;99.90;;;;;;2071642;28;20696;-72
2021/10/23 01:23:56;;;;;;;7.78;2.42;;;6.60;99.90;;;;;;2071626;28;20061;-71
2021/10/23 01:24:57;;;;;;;9.55;2.47;;;6.60;99.90;;;;;;2071943;28;20065;-72
2021/10/23 01:25:58;;;;;;;9.95;2.70;;;6.60;99.90;;;;;;2072106;28;20064;-72
2021/10/23 01:26:58;;;;;;;8.48;2.55;;;6.60;99.90;;;;;;2071836;28;20029;-71
2021/10/23 01:28:02;;;;;;;9.95;2.78;;;6.70;99.90;;;;;;2072510;28;20030;-73
2021/10/23 01:29:04;;;;;;;8.45;2.50;;;6.70;99.90;;;;;;2072577;28;20044;-71
2021/10/23 01:30:06;;;;;;;9.50;2.60;;;6.80;99.90;;;;;;2072359;28;20032;-72
2021/10/23 01:31:07;;;;;;;9.95;2.78;;;6.80;99.90;;;;;;2072210;28;20064;-71
2021/10/23 01:32:08;;;;;;;8.15;2.30;;;6.80;99.90;;;;;;2072101;28;20469;-71
2021/10/23 01:33:08;;;;;;;6.35;2.03;;;6.80;99.90;;;;;;2071776;28;20083;-73
2021/10/23 01:34:22;;;;;;;6.65;2.40;;;6.80;99.90;;;;;;2071350;28;20421;-72
2021/10/23 01:35:25;;;;;;;6.57;2.42;;;6.80;99.90;;;;;;2071853;28;20029;-72
2021/10/23 01:36:26;;;;;;;7.55;2.45;;;6.80;99.90;;;;;;2072410;28;20113;-71
2021/10/23 01:37:44;;;;;;;10.65;2.50;;;6.70;99.90;;;;;;2071813;28;20053;-72
2021/10/23 01:38:45;;;;;;;8.80;2.55;;;6.70;99.90;;;;;;2066002;28;20425;-72
2021/10/23 01:39:46;;;;;;;9.38;2.70;;;6.80;99.90;;;;;;2072040;28;20101;-72
2021/10/23 01:40:46;;;;;;;6.88;2.33;;;6.80;99.90;;;;;;2072428;28;20433;-72
2021/10/23 01:41:47;;;;;;;8.57;2.50;;;6.70;99.90;;;;;;2072200;28;20025;-71
2021/10/23 01:42:48;;;;;;;7.82;2.45;;;6.70;99.90;;;;;;2072519;28;20079;-72
2021/10/23 01:43:49;;;;;;;8.32;2.50;;;6.70;99.90;;;;;;2072032;28;20457;-72
2021/10/23 01:44:49;;;;;;;8.18;2.30;;;6.70;99.90;;;;;;2072538;28;20470;-72
2021/10/23 01:45:50;;;;;;;9.18;2.58;;;6.70;99.90;;;;;;2072126;28;20545;-72
2021/10/23 01:46:51;;;;;;;9.55;2.53;;;6.60;99.90;;;;;;2071940;28;20017;-71
2021/10/23 01:47:51;;;;;;;6.22;2.40;;;6.60;99.90;;;;;;2072383;28;20512;-71
2021/10/23 01:48:52;;;;;;;9.93;2.70;;;6.60;99.90;;;;;;2071685;28;20022;-71
2021/10/23 01:49:52;;;;;;;10.25;2.60;;;6.60;99.90;;;;;;2071693;28;20030;-71
2021/10/23 01:50:53;;;;;;;10.95;2.63;;;6.60;99.90;;;;;;2072308;28;20029;-71
2021/10/23 01:51:54;;;;;;;7.32;2.50;;;6.60;99.90;;;;;;2072090;28;20025;-71
2021/10/23 01:52:56;;;;;;;11.27;2.63;;;6.70;99.90;;;;;;2071233;28;20033;-72
2021/10/23 01:53:56;;;;;;;12.65;2.50;;;6.70;99.90;;;;;;2071555;28;20029;-72
2021/10/23 01:54:57;;;;;;;7.75;2.55;;;6.60;99.90;;;;;;2072314;28;20524;-72
2021/10/23 01:55:58;;;;;;;12.20;2.83;;;6.60;99.90;;;;;;2072387;28;20080;-72
2021/10/23 01:56:58;;;;;;;10.75;2.60;;;6.60;99.90;;;;;;2071718;28;20065;-72
2021/10/23 01:57:59;;;;;;;7.85;2.40;;;6.60;99.90;;;;;;2071643;28;20109;-71
2021/10/23 01:59:00;;;;;;;9.45;2.60;;;6.60;99.90;;;;;;2072113;28;20034;-72
2021/10/23 02:00:01;;;;;;;10.25;2.63;;;6.60;99.90;;;;;;2071597;28;20038;-72
2021/10/23 02:01:01;;;;;;;9.70;2.47;;;6.60;99.90;;;;;;2071552;28;20037;-71
2021/10/23 02:02:03;;;;;;;8.93;2.40;;;6.60;99.90;;;;;;2071755;28;20029;-71
2021/10/23 02:03:04;;;;;;;8.80;2.45;;;6.60;99.90;;;;;;2071778;28;20056;-71
2021/10/23 02:04:05;;;;;;;9.93;2.83;;;6.60;99.90;;;;;;2072099;28;20112;-70
2021/10/23 02:05:06;;;;;;;7.15;2.17;;;6.60;99.90;;;;;;2072064;28;20038;-71
2021/10/23 02:06:10;;;;;;;9.00;2.65;;;6.60;99.90;;;;;;2072170;28;20018;-71
2021/10/23 02:07:10;;;;;;;8.70;2.33;;;6.60;99.90;;;;;;2072385;28;20018;-71
2021/10/23 02:08:11;;;;;;;10.60;2.45;;;6.60;99.90;;;;;;2072746;28;20033;-71
2021/10/23 02:09:11;;;;;;;9.75;2.53;;;6.60;99.90;;;;;;2072281;28;20049;-71
2021/10/23 02:10:12;;;;;;;7.57;2.20;;;6.70;99.90;;;;;;2072516;28;20042;-71
2021/10/23 02:11:13;;;;;;;9.13;2.50;;;6.60;99.90;;;;;;2072218;28;20041;-70
2021/10/23 02:12:14;;;;;;;11.93;2.55;;;6.60;99.90;;;;;;2072232;28;20033;-72
2021/10/23 02:13:14;;;;;;;8.25;2.72;;;6.70;99.90;;;;;;2062950;28;20041;-71
2021/10/23 02:14:15;;;;;;;8.50;2.45;;;6.70;99.90;;;;;;2063017;28;20026;-71
2021/10/23 02:15:16;;;;;;;7.32;2.30;;;6.70;99.90;;;;;;2072184;28;20038;-71
2021/10/23 02:16:17;;;;;;;6.90;2.20;;;6.60;99.90;;;;;;2072139;28;20435;-71
2021/10/23 02:17:17;;;;;;;8.93;2.35;;;6.60;99.90;;;;;;2071553;28;20704;-71
2021/10/23 02:18:18;;;;;;;11.35;2.50;;;6.60;99.90;;;;;;2071524;28;20065;-70
2021/10/23 02:19:18;;;;;;;16.13;2.50;;;6.60;99.90;;;;;;2072081;28;20029;-72
2021/10/23 02:20:19;;;;;;;9.18;2.40;;;6.60;99.90;;;;;;2072107;28;20833;-71
2021/10/23 02:21:20;;;;;;;9.43;2.53;;;6.60;99.90;;;;;;2071888;28;20065;-71
2021/10/23 02:22:20;;;;;;;10.80;2.38;;;6.60;99.90;;;;;;2072207;28;20038;-70
2021/10/23 02:23:22;;;;;;;8.52;2.53;;;6.60;99.90;;;;;;2072488;28;20117;-71
2021/10/23 02:24:23;;;;;;;9.88;2.25;;;6.60;99.90;;;;;;2073711;28;20038;-72
2021/10/23 02:25:23;;;;;;;8.85;2.33;;;6.50;99.90;;;;;;2073714;28;20022;-72
2021/10/23 02:26:24;;;;;;;10.32;2.63;;;6.50;99.90;;;;;;2073673;28;20040;-73
2021/10/23 02:27:25;;;;;;;7.78;2.40;;;6.50;99.90;;;;;;2073618;28;20482;-73
2021/10/23 02:28:25;;;;;;;9.02;2.33;;;6.50;99.90;;;;;;2073489;28;20509;-73
2021/10/23 02:29:26;;;;;;;9.45;2.40;;;6.50;99.90;;;;;;2073647;28;20037;-72
2021/10/23 02:30:26;;;;;;;7.70;2.17;;;6.50;99.90;;;;;;2073716;28;20022;-72
2021/10/23 02:31:27;;;;;;;9.32;2.20;;;6.40;99.90;;;;;;2073319;28;20029;-72
2021/10/23 02:32:28;;;;;;;11.48;2.63;;;6.50;99.90;;;;;;2073576;28;20393;-73
2021/10/23 02:33:40;;;;;;;15.13;2.47;;;6.50;99.90;;;;;;2073164;28;20034;-73
2021/10/23 02:34:44;;;;;;;15.02;2.50;;;6.50;99.90;;;;;;2072882;28;20217;-72
2021/10/23 02:35:44;;;;;;;11.27;2.40;;;6.50;99.90;;;;;;2072988;28;20092;-71
2021/10/23 02:36:45;;;;;;;9.93;2.42;;;6.50;99.90;;;;;;2073623;28;20018;-72
2021/10/23 02:37:46;;;;;;;13.68;2.55;;;6.50;99.90;;;;;;2073648;28;20034;-71
2021/10/23 02:38:48;;;;;;;7.20;2.30;;;6.50;99.90;;;;;;2073639;28;20080;-72
2021/10/23 02:39:49;;;;;;;10.35;2.40;;;6.50;99.90;;;;;;2073648;28;20052;-72
2021/10/23 02:40:49;;;;;;;8.52;2.20;;;6.50;99.90;;;;;;2072940;28;20097;-72
2021/10/23 02:41:50;;;;;;;7.63;2.47;;;6.50;99.90;;;;;;2072412;28;20040;-71
2021/10/23 02:42:50;;;;;;;10.90;2.35;;;6.50;99.90;;;;;;2073662;28;20363;-71
2021/10/23 02:43:52;;;;;;;6.07;1.92;;;6.50;99.90;;;;;;2073093;28;20076;-72
2021/10/23 02:44:53;;;;;;;10.75;2.22;;;6.50;99.90;;;;;;2072749;28;20026;-72
2021/10/23 02:45:54;;;;;;;9.73;2.47;;;6.50;99.90;;;;;;2072921;28;20065;-72
2021/10/23 02:46:54;;;;;;;10.30;2.35;;;6.50;99.90;;;;;;2073523;28;20041;-72
2021/10/23 02:47:55;;;;;;;9.00;2.13;;;6.40;99.90;;;;;;2073486;28;20021;-72
2021/10/23 02:48:55;;;;;;;10.30;2.33;;;6.50;99.90;;;;;;2073407;28;20080;-72
2021/10/23 02:49:56;;;;;;;9.57;2.13;;;6.40;99.90;;;;;;2073468;28;20022;-71
2021/10/23 02:50:57;;;;;;;11.77;2.50;;;6.50;99.90;;;;;;2073580;28;20061;-71
2021/10/23 02:51:57;;;;;;;9.90;2.60;;;6.40;99.90;;;;;;2073325;28;20033;-72
2021/10/23 02:52:59;;;;;;;9.38;2.20;;;6.40;99.90;;;;;;2073024;28;20025;-72
2021/10/23 02:54:00;;;;;;;8.90;2.65;;;6.30;99.90;;;;;;2073157;28;20033;-72
2021/10/23 02:55:01;;;;;;;13.25;2.50;;;6.30;99.90;;;;;;2073383;28;20104;-72
2021/10/23 02:56:01;;;;;;;10.77;2.42;;;6.30;99.90;;;;;;2073392;28;20030;-72
2021/10/23 02:57:02;;;;;;;9.32;2.35;;;6.30;99.90;;;;;;2072674;28;20095;-72
2021/10/23 02:58:02;;;;;;;12.63;2.50;;;6.30;99.90;;;;;;2072843;28;20042;-72
2021/10/23 02:59:03;;;;;;;10.85;2.33;;;6.30;99.90;;;;;;2073388;28;20056;-73
2021/10/23 03:00:08;;;;;;;11.75;2.58;;;6.30;99.90;;;;;;2073395;28;20057;-72
2021/10/23 03:01:08;;;;;;;10.88;2.25;;;6.30;99.90;;;;;;2073236;28;20034;-73
2021/10/23 03:02:09;;;;;;;12.02;2.67;;;6.30;99.90;;;;;;2073201;28;20041;-73
2021/10/23 03:03:10;;;;;;;12.52;2.75;;;6.30;99.90;;;;;;2072933;28;20045;-72
2021/10/23 03:04:10;;;;;;;11.85;2.92;;;6.30;99.90;;;;;;2073217;28;20081;-73
2021/10/23 03:05:11;;;;;;;9.27;2.28;;;6.30;99.90;;;;;;2072751;28;20025;-73
2021/10/23 03:06:12;;;;;;;8.32;2.28;;;6.30;99.90;;;;;;2072785;28;20433;-72
2021/10/23 03:07:13;;;;;;;11.27;2.50;;;6.20;99.90;;;;;;2073311;28;20125;-72
2021/10/23 03:08:15;;;;;;;10.05;2.45;;;6.20;99.90;;;;;;2073238;28;20037;-73
2021/10/23 03:09:16;;;;;;;9.00;2.50;;;6.20;99.90;;;;;;2073152;28;20026;-73
2021/10/23 03:10:16;;;;;;;13.77;2.60;;;6.20;99.90;;;;;;2075107;28;20049;-73
2021/10/23 03:11:17;;;;;;;8.25;2.25;;;6.20;99.90;;;;;;2074917;28;20034;-73
2021/10/23 03:12:17;;;;;;;9.20;2.42;;;6.10;99.90;;;;;;2075090;28;20473;-73
2021/10/23 03:13:18;;;;;;;11.80;2.58;;;6.10;99.90;;;;;;2073792;28;20474;-72
2021/10/23 03:14:19;;;;;;;9.63;2.30;;;6.10;99.90;;;;;;2073359;28;20026;-72
2021/10/23 03:15:19;;;;;;;10.27;2.38;;;6.10;99.90;;;;;;2073368;28;20624;-72
2021/10/23 03:16:20;;;;;;;10.07;2.60;;;6.10;99.90;;;;;;2073171;28;20045;-72
2021/10/23 03:17:20;;;;;;;12.40;2.58;;;6.10;99.90;;;;;;2072485;28;20088;-72
2021/10/23 03:18:22;;;;;;;10.57;2.28;;;6.10;99.90;;;;;;2072680;28;20705;-72
2021/10/23 03:19:24;;;;;;;9.88;2.33;;;6.10;99.90;;;;;;2073297;28;20037;-71
2021/10/23 03:20:25;;;;;;;9.00;2.20;;;6.10;99.90;;;;;;2073250;28;20026;-73
2021/10/23 03:21:26;;;;;;;11.00;2.53;;;6.10;99.90;;;;;;2073055;28;20065;-73
2021/10/23 03:22:27;;;;;;;7.20;2.03;;;6.10;99.90;;;;;;2073339;28;20036;-72
2021/10/23 03:23:27;;;;;;;13.23;2.70;;;6.00;99.90;;;;;;2072744;28;20717;-71
2021/10/23 03:24:28;;;;;;;9.20;2.03;;;6.10;99.90;;;;;;2072677;28;20033;-69
2021/10/23 03:25:29;;;;;;;9.27;2.10;;;6.10;99.90;;;;;;2072895;28;20045;-70
2021/10/23 03:26:29;;;;;;;13.15;2.28;;;6.00;99.90;;;;;;2073286;28;20026;-70
2021/10/23 03:27:30;;;;;;;11.15;2.53;;;6.00;99.90;;;;;;2073340;28;20762;-70
2021/10/23 03:28:30;;;;;;;13.57;2.80;;;6.00;99.90;;;;;;2073423;28;20057;-70
2021/10/23 03:29:31;;;;;;;13.38;2.63;;;6.00;99.90;;;;;;2072822;28;20158;-70
2021/10/23 03:30:32;;;;;;;8.88;2.47;;;6.00;99.90;;;;;;2072777;28;20028;-70
2021/10/23 03:31:32;;;;;;;11.52;2.65;;;6.00;99.90;;;;;;2072676;28;20034;-70
2021/10/23 03:32:33;;;;;;;11.10;2.67;;;6.00;99.90;;;;;;2073303;28;20057;-70
2021/10/23 03:33:34;;;;;;;9.07;2.40;;;6.10;99.90;;;;;;2072429;28;20038;-70
2021/10/23 03:34:35;;;;;;;10.45;2.60;;;6.10;99.90;;;;;;2072251;28;20430;-70
2021/10/23 03:35:35;;;;;;;12.45;2.67;;;6.10;99.90;;;;;;2072595;28;20050;-72
2021/10/23 03:36:36;;;;;;;10.57;2.40;;;6.00;99.90;;;;;;2073194;28;20596;-72
2021/10/23 03:37:37;;;;;;;10.95;2.38;;;6.00;99.90;;;;;;2073177;28;20065;-72
2021/10/23 03:38:37;;;;;;;10.45;2.47;;;6.00;99.90;;;;;;2073147;28;20021;-72
2021/10/23 03:39:39;;;;;;;12.77;2.35;;;6.00;99.90;;;;;;2073178;28;20057;-73
2021/10/23 03:40:40;;;;;;;9.45;2.63;;;6.00;99.90;;;;;;2073112;28;20030;-73
2021/10/23 03:41:41;;;;;;;12.63;2.38;;;6.00;99.90;;;;;;2072202;28;20449;-71
2021/10/23 03:42:41;;;;;;;11.65;2.60;;;5.90;99.90;;;;;;2072459;28;20045;-72
2021/10/23 03:43:43;;;;;;;12.55;2.70;;;5.90;99.90;;;;;;2072823;28;20109;-72
2021/10/23 03:44:43;;;;;;;14.20;2.40;;;5.90;99.90;;;;;;2073439;28;20500;-72
2021/10/23 03:45:44;;;;;;;13.02;2.35;;;5.90;99.90;;;;;;2073482;28;20084;-73
2021/10/23 03:46:45;;;;;;;13.43;2.58;;;5.90;99.90;;;;;;2073564;28;20096;-73
2021/10/23 03:47:45;;;;;;;8.70;2.28;;;5.90;99.90;;;;;;2073127;28;20018;-72
2021/10/23 03:48:46;;;;;;;11.02;2.60;;;5.90;99.90;;;;;;2073095;28;20030;-72
2021/10/23 03:49:47;;;;;;;12.13;2.60;;;5.80;99.90;;;;;;2073136;28;20084;-72
2021/10/23 03:50:47;;;;;;;8.65;2.38;;;5.80;99.90;;;;;;2073136;28;20030;-72
2021/10/23 03:51:48;;;;;;;10.38;2.60;;;5.80;99.90;;;;;;2072250;28;20417;-72
2021/10/23 03:52:49;;;;;;;10.98;2.53;;;5.80;99.90;;;;;;2072364;28;20034;-72
2021/10/23 03:53:49;;;;;;;8.93;2.30;;;5.80;99.90;;;;;;2071899;28;20556;-72
2021/10/23 03:54:50;;;;;;;6.57;2.47;;;5.80;99.90;;;;;;2064314;28;20041;-73
2021/10/23 03:55:50;;;;;;;12.82;2.50;;;5.80;99.90;;;;;;2072703;28;20026;-73
2021/10/23 03:56:51;;;;;;;12.98;2.38;;;5.80;99.90;;;;;;2073103;28;20037;-72
2021/10/23 03:57:52;;;;;;;13.88;2.55;;;5.80;99.90;;;;;;2073110;28;20116;-72
2021/10/23 03:58:53;;;;;;;10.95;2.65;;;5.70;99.90;;;;;;2073121;28;20049;-72
2021/10/23 03:59:53;;;;;;;8.63;2.50;;;5.80;99.90;;;;;;2072440;28;20030;-72
2021/10/23 04:00:55;;;;;;;9.35;2.60;;;5.80;99.90;;;;;;2073767;28;20026;-71
2021/10/23 04:04:11;;;;;;;12.02;2.60;;;5.70;99.90;;;;;;2072791;28;20390;-72
2021/10/23 04:05:14;;;;;;;10.70;2.22;;;5.70;99.90;;;;;;2073472;28;20025;-71
2021/10/23 04:06:14;;;;;;;14.07;2.50;;;5.70;99.90;;;;;;2074186;28;20026;-70
2021/10/23 04:07:15;;;;;;;10.93;2.42;;;5.70;99.90;;;;;;2074203;28;20025;-71
2021/10/23 04:08:15;;;;;;;10.30;2.35;;;5.70;99.90;;;;;;2073126;28;20030;-70
2021/10/23 04:09:17;;;;;;;12.95;2.60;;;5.70;99.90;;;;;;2072809;28;20073;-71
2021/10/23 04:10:17;;;;;;;15.05;2.80;;;5.70;99.90;;;;;;2073002;28;20026;-71
2021/10/23 04:11:18;;;;;;;16.13;3.10;;;5.80;99.90;;;;;;2072072;28;20469;-70
2021/10/23 04:12:19;;;;;;;10.70;2.50;;;5.80;99.90;;;;;;2071904;28;20444;-70
2021/10/23 04:13:20;;;;;;;11.75;2.60;;;5.80;99.90;;;;;;2072843;28;20038;-71
2021/10/23 04:14:20;;;;;;;11.32;2.72;;;5.80;99.90;;;;;;2072714;28;20053;-70
2021/10/23 04:17:44;;;;;;;12.00;2.92;;;5.70;99.90;;;;;;2072886;28;20030;-69
2021/10/23 04:18:44;;;;;;;11.50;2.80;;;5.70;99.90;;;;;;2072221;28;20033;-70
2021/10/23 04:19:45;;;;;;;10.90;3.10;;;5.70;99.90;;;;;;2072268;28;20104;-70
2021/10/23 04:20:45;;;;;;;13.75;2.95;;;5.70;99.90;;;;;;2072958;28;20054;-71
2021/10/23 04:21:46;;;;;;;13.35;2.83;;;5.60;99.90;;;;;;2071863;28;20057;-70
2021/10/23 04:22:47;;;;;;;15.80;3.10;;;5.60;99.90;;;;;;2072338;28;20533;-70
2021/10/23 04:23:47;;;;;;;13.77;3.15;;;5.60;99.90;;;;;;2072747;28;20030;-70
2021/10/23 04:24:48;;;;;;;17.75;3.30;;;5.70;99.90;;;;;;2072703;28;20350;-71
2021/10/23 04:25:49;;;;;;;12.40;3.05;;;5.70;99.90;;;;;;2072393;28;20018;-70
2021/10/23 04:26:52;;;;;;;14.90;3.05;;;5.70;99.90;;;;;;2072623;28;20141;-70
2021/10/23 04:27:52;;;;;;;13.30;2.95;;;5.70;99.90;;;;;;2072313;28;20038;-70
2021/10/23 04:28:53;;;;;;;14.18;3.13;;;5.70;99.90;;;;;;2072224;28;20021;-70
2021/10/23 04:29:54;;;;;;;15.13;3.00;;;5.70;99.90;;;;;;2072728;28;20585;-70
2021/10/23 04:30:54;;;;;;;13.07;2.60;;;5.70;99.90;;;;;;2072770;28;20037;-69
2021/10/23 04:31:55;;;;;;;11.70;2.70;;;5.80;99.90;;;;;;2072464;28;20026;-70
2021/10/23 04:32:55;;;;;;;14.43;2.90;;;5.80;99.90;;;;;;2072692;28;20080;-70
2021/10/23 04:33:56;;;;;;;14.55;3.15;;;5.80;99.90;;;;;;2063721;28;20109;-70
2021/10/23 04:34:56;;;;;;;14.98;2.90;;;5.80;99.90;;;;;;2064083;28;20052;-70
2021/10/23 04:35:57;;;;;;;14.43;3.03;;;5.80;99.90;;;;;;2072214;28;20482;-70
2021/10/23 04:36:58;;;;;;;12.43;2.75;;;5.80;99.90;;;;;;2072727;28;20053;-70
2021/10/23 04:37:58;;;;;;;13.75;2.75;;;5.80;99.90;;;;;;2075186;28;20042;-70
2021/10/23 04:38:59;;;;;;;15.35;3.00;;;5.70;99.90;;;;;;2075635;28;20030;-71
2021/10/23 04:40:00;;;;;;;13.10;2.78;;;5.80;99.90;;;;;;2074833;28;20045;-71
2021/10/23 04:41:01;;;;;;;12.98;2.88;;;5.80;99.90;;;;;;2075119;28;20022;-70
2021/10/23 04:42:01;;;;;;;14.00;2.88;;;5.70;99.90;;;;;;2072584;28;20401;-70
2021/10/23 04:43:02;;;;;;;12.05;2.72;;;5.80;99.90;;;;;;2072489;28;20104;-70
2021/10/23 04:44:03;;;;;;;17.92;3.03;;;5.80;99.90;;;;;;2072531;28;20035;-70
2021/10/23 04:45:05;;;;;;;9.60;2.53;;;5.70;99.90;;;;;;2072491;28;20064;-71
2021/10/23 04:46:06;;;;;;;15.30;2.90;;;5.70;99.90;;;;;;2071586;28;20041;-70
2021/10/23 04:47:06;;;;;;;13.60;3.03;;;5.70;99.90;;;;;;2072601;28;20041;-71
2021/10/23 04:48:07;;;;;;;14.73;3.15;;;5.70;99.90;;;;;;2072757;28;20053;-70
2021/10/23 04:49:08;;;;;;;17.92;3.17;;;5.70;99.90;;;;;;2072667;28;20068;-72
2021/10/23 04:50:09;;;;;;;12.48;2.80;;;5.70;99.90;;;;;;2072670;28;20637;-72
2021/10/23 04:51:10;;;;;;;11.43;2.90;;;5.70;99.90;;;;;;2072476;28;20041;-72
2021/10/23 04:52:10;;;;;;;10.82;2.60;;;5.70;99.90;;;;;;2072290;28;20014;-72
2021/10/23 04:53:11;;;;;;;16.33;2.97;;;5.70;99.90;;;;;;2072504;28;20030;-71
2021/10/23 04:54:11;;;;;;;11.10;2.90;;;5.70;99.90;;;;;;2072238;28;20034;-72
2021/10/23 04:55:12;;;;;;;15.23;2.90;;;5.70;99.90;;;;;;2071383;28;20030;-72
2021/10/23 04:56:12;;;;;;;13.70;2.92;;;5.70;99.90;;;;;;2071904;28;20029;-71
2021/10/23 04:57:13;;;;;;;12.50;2.70;;;5.70;99.90;;;;;;2072685;28;20061;-72
2021/10/23 04:58:14;;;;;;;16.02;2.92;;;5.70;99.90;;;;;;2072494;28;20120;-72
2021/10/23 04:59:14;;;;;;;12.75;2.65;;;5.70;99.90;;;;;;2072483;28;20104;-71
2021/10/23 05:00:15;;;;;;;14.13;2.90;;;5.70;99.90;;;;;;2072382;28;20500;-72
2021/10/23 05:01:15;;;;;;;11.05;2.70;;;5.60;99.90;;;;;;2072111;28;20068;-72
2021/10/23 05:02:16;;;;;;;14.52;3.20;;;5.60;99.90;;;;;;2072454;28;20073;-72
2021/10/23 05:03:17;;;;;;;12.30;2.80;;;5.70;99.90;;;;;;2072447;28;20509;-71
2021/10/23 05:04:17;;;;;;;12.93;3.08;;;5.60;99.90;;;;;;2071839;28;20120;-72
2021/10/23 05:05:18;;;;;;;15.98;2.85;;;5.70;99.90;;;;;;2071464;28;20034;-71
2021/10/23 05:06:19;;;;;;;13.90;3.25;;;5.70;99.90;;;;;;2072535;28;20109;-72
2021/10/23 05:07:19;;;;;;;11.70;2.80;;;5.70;99.90;;;;;;2072376;28;20112;-73
2021/10/23 05:08:20;;;;;;;12.43;2.60;;;5.70;99.90;;;;;;2072478;28;20025;-72
2021/10/23 05:09:21;;;;;;;15.18;3.05;;;5.70;99.90;;;;;;2072444;28;20468;-72
2021/10/23 05:10:21;;;;;;;15.27;3.28;;;5.80;99.90;;;;;;2072443;28;20416;-71
2021/10/23 05:11:22;;;;;;;12.68;3.13;;;5.70;99.90;;;;;;2072309;28;20033;-71
2021/10/23 05:12:23;;;;;;;15.90;3.30;;;5.70;99.90;;;;;;2071918;28;20037;-72
2021/10/23 05:13:23;;;;;;;16.60;3.17;;;5.70;99.90;;;;;;2063697;28;20389;-71
2021/10/23 05:14:24;;;;;;;15.10;3.05;;;5.70;99.90;;;;;;2072089;28;20425;-73
2021/10/23 05:15:24;;;;;;;12.90;2.60;;;5.70;99.90;;;;;;2072632;28;20026;-72
2021/10/23 05:16:25;;;;;;;16.48;3.20;;;5.80;99.90;;;;;;2073254;28;20025;-71
2021/10/23 05:17:26;;;;;;;13.25;2.95;;;5.80;99.90;;;;;;2073107;28;20030;-74
2021/10/23 05:18:26;;;;;;;12.65;3.30;;;5.80;99.90;;;;;;2072851;28;20022;-73
2021/10/23 05:19:27;;;;;;;10.32;2.90;;;5.80;99.90;;;;;;2072574;28;20469;-73
2021/10/23 05:20:28;;;;;;;14.63;2.78;;;5.80;99.90;;;;;;2072570;28;20042;-73
2021/10/23 05:21:28;;;;;;;13.73;2.70;;;5.80;99.90;;;;;;2072275;28;20030;-73
2021/10/23 05:22:29;;;;;;;11.75;2.72;;;5.80;99.90;;;;;;2071884;28;20069;-70
2021/10/23 05:23:30;;;;;;;16.95;3.10;;;5.80;99.90;;;;;;2071656;28;20030;-71
2021/10/23 05:24:30;;;;;;;13.05;3.08;;;5.80;99.90;;;;;;2072656;28;20049;-71